Time;durP1;ratioP1;P1;durP2;ratioP2;P2;SDS_P1;SDS_P2;PMS_P1;PMS_P2;Temp;Humidity;BMP_temperature;BMP_pressure;BME280_temperature;BME280_humidity;BME280_pressure;Samples;Min_cycle;Max_cycle;Signal;HPM_P1;HPM_P2
2022/04/25 00:00:48;;;;;;;26.00;18.42;;;;;;;7.60;97.02;96405.44;5058766;28;20797;-63
2022/04/25 00:03:15;;;;;;;27.02;19.63;;;;;;;7.58;96.89;96404.84;5055173;28;20755;-63
2022/04/25 00:05:42;;;;;;;28.00;19.88;;;;;;;7.52;96.97;96406.72;5063525;28;20070;-63
2022/04/25 00:08:08;;;;;;;29.85;20.60;;;;;;;7.55;96.75;96408.88;5063435;28;20033;-63
2022/04/25 00:10:35;;;;;;;30.25;19.27;;;;;;;7.59;97.33;96412.69;5046313;28;20044;-63
2022/04/25 00:13:02;;;;;;;27.77;18.52;;;;;;;7.58;96.65;96408.38;5045594;28;20106;-63
2022/04/25 00:15:28;;;;;;;30.30;19.85;;;;;;;7.61;96.03;96407.88;5050109;28;20508;-63
2022/04/25 00:17:55;;;;;;;29.13;20.08;;;;;;;7.54;96.45;96407.25;5062997;28;20760;-63
2022/04/25 00:20:22;;;;;;;27.05;18.05;;;;;;;7.61;95.92;96407.88;5056742;28;20745;-63
2022/04/25 00:22:48;;;;;;;27.08;19.38;;;;;;;7.54;96.91;96402.69;5049871;28;20052;-63
2022/04/25 00:25:15;;;;;;;29.42;18.80;;;;;;;7.49;96.84;96405.31;5062226;28;20047;-62
2022/04/25 00:27:41;;;;;;;25.48;18.02;;;;;;;7.45;96.73;96408.81;5056965;28;20052;-63
2022/04/25 00:30:08;;;;;;;29.15;19.85;;;;;;;7.41;96.82;96413.91;5061309;28;20055;-63
2022/04/25 00:32:35;;;;;;;30.48;19.48;;;;;;;7.39;97.02;96406.06;5057353;28;20048;-63
2022/04/25 00:35:03;;;;;;;24.80;18.00;;;;;;;7.27;96.82;96411.59;5053528;28;20052;-63
2022/04/25 00:37:30;;;;;;;25.20;17.90;;;;;;;7.28;96.92;96412.41;5048043;28;20531;-63
2022/04/25 00:39:56;;;;;;;27.13;19.27;;;;;;;7.25;96.82;96410.22;5063212;28;20040;-63
2022/04/25 00:42:23;;;;;;;32.80;20.73;;;;;;;7.25;96.80;96416.44;5046182;28;20045;-63
2022/04/25 00:44:50;;;;;;;30.83;21.60;;;;;;;7.14;96.40;96410.13;5056099;28;20044;-63
2022/04/25 00:47:18;;;;;;;32.60;20.73;;;;;;;7.13;96.02;96411.22;5057091;28;20503;-63
2022/04/25 00:49:44;;;;;;;30.42;20.38;;;;;;;7.13;96.81;96411.22;5070381;28;20045;-63
2022/04/25 00:52:11;;;;;;;30.42;20.42;;;;;;;7.06;96.54;96415.97;5063862;28;20055;-62
2022/04/25 00:54:38;;;;;;;30.55;20.75;;;;;;;7.04;96.78;96407.31;5063271;28;20043;-63
2022/04/25 00:57:05;;;;;;;32.35;21.27;;;;;;;6.99;97.47;96418.03;5057249;28;20037;-63
2022/04/25 00:59:32;;;;;;;31.92;20.45;;;;;;;7.01;97.22;96416.72;5049011;28;20455;-63
2022/04/25 01:01:59;;;;;;;30.52;21.15;;;;;;;6.98;96.87;96419.09;5053011;28;20098;-63
2022/04/25 01:04:26;;;;;;;32.70;22.00;;;;;;;6.92;97.04;96426.31;5046539;28;20450;-63
2022/04/25 01:06:53;;;;;;;28.30;19.20;;;;;;;7.00;97.15;96417.78;5067865;28;20067;-63
2022/04/25 01:09:20;;;;;;;26.98;18.60;;;;;;;7.01;97.13;96410.53;5063858;28;20043;-62
2022/04/25 01:11:47;;;;;;;31.92;20.23;;;;;;;6.95;97.57;96412.34;5054146;28;20084;-62
2022/04/25 01:14:16;;;;;;;30.45;20.83;;;;;;;6.88;98.39;96417.09;5049586;28;20041;-63
2022/04/25 01:16:43;;;;;;;32.03;20.95;;;;;;;6.86;98.61;96414.66;5048548;28;20041;-62
2022/04/25 01:19:11;;;;;;;29.95;20.75;;;;;;;6.92;98.20;96417.44;5060358;28;20045;-63
2022/04/25 01:21:50;;;;;;;29.65;19.05;;;;;;;7.00;96.53;96416.97;5056978;28;20041;-62
2022/04/25 01:27:22;;;;;;;30.63;19.10;;;;;;;7.00;97.29;96422.34;4999307;28;20126;-62
2022/04/25 01:29:53;;;;;;;31.48;20.23;;;;;;;7.01;97.10;96418.59;5004024;28;20055;-63
2022/04/25 01:32:22;;;;;;;30.70;19.70;;;;;;;7.02;97.34;96414.84;5032923;28;20048;-63
2022/04/25 01:34:49;;;;;;;34.05;20.70;;;;;;;6.99;98.05;96424.25;5049599;28;20507;-63
2022/04/25 01:37:18;;;;;;;31.60;20.52;;;;;;;7.01;97.54;96421.31;5065082;28;20045;-63
2022/04/25 01:39:47;;;;;;;24.77;17.85;;;;;;;7.09;97.70;96428.09;5066622;28;20094;-63
2022/04/25 01:42:14;;;;;;;28.17;18.38;;;;;;;7.19;97.17;96428.19;5064939;28;20426;-62
2022/04/25 01:44:41;;;;;;;29.60;20.75;;;;;;;7.09;96.94;96425.41;5048596;28;20048;-63
2022/04/25 01:47:08;;;;;;;29.27;19.25;;;;;;;7.11;96.97;96420.59;5057849;28;20037;-62
2022/04/25 01:49:36;;;;;;;27.70;19.05;;;;;;;7.06;96.91;96429.44;5064429;28;20045;-62
2022/04/25 01:52:15;;;;;;;27.75;18.67;;;;;;;7.06;97.76;96432.13;5060540;28;20051;-62
2022/04/25 01:54:43;;;;;;;29.80;18.77;;;;;;;6.99;97.29;96432.31;5049236;28;20864;-62
2022/04/25 01:57:09;;;;;;;29.08;19.80;;;;;;;6.81;97.62;96428.06;5054151;28;20041;-62
2022/04/25 01:59:36;;;;;;;33.17;21.50;;;;;;;6.72;98.26;96434.94;5048395;28;20045;-62
2022/04/25 02:02:03;;;;;;;37.15;21.85;;;;;;;6.72;98.22;96429.56;5056377;28;20040;-62
2022/04/25 02:04:30;;;;;;;32.85;21.85;;;;;;;6.66;98.87;96427.91;5059188;28;20536;-62
2022/04/25 02:06:58;;;;;;;35.67;21.92;;;;;;;6.60;98.74;96432.38;5058953;28;20044;-62
2022/04/25 02:09:28;;;;;;;38.92;23.15;;;;;;;6.59;98.73;96423.50;5061193;28;20067;-63
2022/04/25 02:11:54;;;;;;;30.55;20.25;;;;;;;6.59;98.73;96434.25;5051025;28;20060;-62
2022/04/25 02:14:20;;;;;;;32.97;20.42;;;;;;;6.59;99.09;96428.06;5051957;28;20402;-62
2022/04/25 02:16:47;;;;;;;35.72;20.42;;;;;;;6.60;99.01;96435.09;5058504;28;20071;-62
2022/04/25 02:19:13;;;;;;;34.40;21.20;;;;;;;6.66;98.17;96441.34;5049550;28;20051;-62
2022/04/25 02:21:40;;;;;;;31.60;20.10;;;;;;;6.55;98.75;96446.56;5059530;28;20040;-62
2022/04/25 02:24:07;;;;;;;32.05;20.83;;;;;;;6.48;99.01;96446.75;5050836;28;20033;-63
2022/04/25 02:26:33;;;;;;;31.60;19.67;;;;;;;6.43;99.64;96448.56;5064940;28;20041;-63
2022/04/25 02:29:00;;;;;;;34.53;21.55;;;;;;;6.43;99.80;96449.38;5052836;28;20048;-63
2022/04/25 02:31:26;;;;;;;40.03;23.10;;;;;;;6.46;99.82;96448.91;5059098;28;20094;-63
2022/04/25 02:33:53;;;;;;;36.40;22.75;;;;;;;6.53;99.81;96456.78;5056954;28;20041;-62
2022/04/25 02:36:20;;;;;;;36.17;22.15;;;;;;;6.58;99.60;96448.78;5056193;28;20056;-62
2022/04/25 02:38:46;;;;;;;37.30;23.48;;;;;;;6.59;99.30;96449.56;5065628;28;20421;-63
2022/04/25 02:41:13;;;;;;;34.95;21.70;;;;;;;6.64;99.93;96450.44;5064439;28;20075;-63
2022/04/25 02:43:44;;;;;;;36.00;22.45;;;;;;;6.66;99.50;96449.41;5046469;28;20045;-63
2022/04/25 02:46:13;;;;;;;34.83;22.98;;;;;;;6.59;99.01;96453.09;5045335;28;20048;-62
2022/04/25 02:48:41;;;;;;;35.30;21.15;;;;;;;6.64;98.78;96450.44;5051292;28;20044;-62
2022/04/25 02:51:09;;;;;;;35.83;22.42;;;;;;;6.70;99.59;96456.72;5066033;28;20036;-63
2022/04/25 02:53:36;;;;;;;39.05;22.75;;;;;;;6.62;98.79;96457.16;5052530;28;20091;-63
2022/04/25 02:56:04;;;;;;;36.13;21.90;;;;;;;6.57;98.81;96455.22;5064721;28;20044;-63
2022/04/25 02:58:31;;;;;;;36.70;22.50;;;;;;;6.52;98.86;96454.34;5062722;28;20079;-62
2022/04/25 03:00:58;;;;;;;37.15;22.40;;;;;;;6.48;99.77;96452.13;5060863;28;20052;-62
2022/04/25 03:03:26;;;;;;;37.83;23.33;;;;;;;6.42;98.97;96455.00;5057855;28;20043;-62
2022/04/25 03:05:54;;;;;;;41.20;24.27;;;;;;;6.39;99.20;96459.00;5056162;28;20076;-63
2022/04/25 03:08:23;;;;;;;36.80;22.80;;;;;;;6.27;99.09;96456.44;5058463;28;20094;-63
2022/04/25 03:10:53;;;;;;;39.30;22.23;;;;;;;6.28;99.67;96459.91;5063140;28;20562;-62
2022/04/25 03:13:21;;;;;;;37.58;23.27;;;;;;;6.32;100.00;96464.56;5051105;28;20614;-63
2022/04/25 03:15:48;;;;;;;40.50;22.60;;;;;;;6.43;100.00;96462.81;5061479;28;20411;-63
2022/04/25 03:18:18;;;;;;;43.97;24.73;;;;;;;6.40;100.00;96466.00;5046316;28;20055;-63
2022/04/25 03:20:48;;;;;;;36.80;22.00;;;;;;;6.36;99.89;96468.38;5053482;28;20052;-63
2022/04/25 03:23:20;;;;;;;40.53;23.77;;;;;;;6.29;100.00;96470.41;5053882;28;20041;-63
2022/04/25 03:25:46;;;;;;;39.38;23.50;;;;;;;6.34;100.00;96472.38;5062360;28;20043;-62
2022/04/25 03:28:13;;;;;;;38.30;22.15;;;;;;;6.31;100.00;96471.00;5063908;28;20036;-63
2022/04/25 03:30:41;;;;;;;40.85;24.38;;;;;;;6.30;100.00;96471.25;5044970;28;20067;-63
2022/04/25 03:33:11;;;;;;;44.08;24.60;;;;;;;6.31;100.00;96472.88;5054932;28;20041;-63
2022/04/25 03:35:41;;;;;;;40.75;23.98;;;;;;;6.32;100.00;96483.38;5057903;28;20041;-63
2022/04/25 03:38:08;;;;;;;48.22;25.20;;;;;;;6.34;100.00;96475.88;5055804;28;20688;-63
2022/04/25 03:40:36;;;;;;;39.45;22.80;;;;;;;6.40;100.00;96475.94;5063939;28;20512;-62
2022/04/25 03:43:08;;;;;;;39.80;23.75;;;;;;;6.38;100.00;96485.06;5057855;28;20048;-63
2022/04/25 03:45:35;;;;;;;40.20;23.08;;;;;;;6.49;100.00;96477.97;5055670;28;20484;-63
2022/04/25 03:48:02;;;;;;;41.50;23.60;;;;;;;6.53;100.00;96477.47;5065116;28;20428;-63
2022/04/25 03:50:33;;;;;;;37.25;23.88;;;;;;;6.54;99.28;96481.78;5052925;28;20040;-63
2022/04/25 03:53:11;;;;;;;41.15;23.10;;;;;;;6.55;99.38;96488.78;5056977;28;20052;-63
2022/04/25 03:58:23;;;;;;;37.55;23.25;;;;;;;6.67;99.44;96484.09;5045385;28;20049;-62
2022/04/25 04:00:50;;;;;;;37.17;22.73;;;;;;;6.66;99.28;96487.88;5055810;28;20048;-62
2022/04/25 04:03:18;;;;;;;39.30;22.42;;;;;;;6.74;99.41;96492.00;5058542;28;20055;-62
2022/04/25 04:05:46;;;;;;;36.15;22.02;;;;;;;6.81;99.80;96495.31;5053242;28;20036;-62
2022/04/25 04:08:13;;;;;;;38.85;24.98;;;;;;;6.79;99.42;96497.47;5045134;28;20049;-62
2022/04/25 04:10:40;;;;;;;35.80;21.65;;;;;;;6.77;98.85;96504.97;5054465;28;20045;-62
2022/04/25 04:13:07;;;;;;;38.08;21.05;;;;;;;6.74;98.48;96502.75;5047434;28;20047;-63
2022/04/25 04:15:34;;;;;;;33.65;21.27;;;;;;;6.74;98.46;96503.59;5054104;28;20048;-63
2022/04/25 04:18:04;;;;;;;34.80;20.83;;;;;;;6.78;99.19;96505.78;5063657;28;20041;-63
2022/04/25 04:20:32;;;;;;;34.60;21.38;;;;;;;6.76;98.86;96514.09;5056632;28;20044;-63
2022/04/25 04:22:58;;;;;;;37.38;22.13;;;;;;;6.85;99.67;96507.22;5065177;28;20166;-63
2022/04/25 04:25:25;;;;;;;40.60;22.25;;;;;;;6.88;99.25;96516.66;5065853;28;20722;-63
2022/04/25 04:27:52;;;;;;;34.72;20.75;;;;;;;6.90;99.27;96525.31;5064819;28;20051;-63
2022/04/25 04:30:18;;;;;;;35.60;20.92;;;;;;;6.92;98.77;96525.06;5059909;28;20046;-63
2022/04/25 04:32:46;;;;;;;32.85;20.02;;;;;;;6.91;99.12;96532.31;5056909;28;20079;-63
2022/04/25 04:35:15;;;;;;;33.05;19.50;;;;;;;7.00;99.26;96535.38;5058590;28;20049;-63
2022/04/25 04:37:42;;;;;;;37.80;20.88;;;;;;;6.82;98.98;96548.06;5066312;28;20049;-63
2022/04/25 04:42:56;;;;;;;37.97;20.52;;;;;;;6.96;100.00;96537.78;5060058;28;20055;-63
2022/04/25 04:45:23;;;;;;;37.42;22.25;;;;;;;7.00;100.00;96538.06;5046031;28;20049;-63
2022/04/25 04:47:49;;;;;;;38.40;21.60;;;;;;;6.97;99.23;96542.09;5052507;28;20051;-63
2022/04/25 04:50:16;;;;;;;37.42;21.58;;;;;;;7.02;99.79;96539.47;5063445;28;20041;-63
2022/04/25 04:52:52;;;;;;;33.75;20.65;;;;;;;7.02;99.40;96542.16;5065177;28;20044;-63
2022/04/25 04:55:19;;;;;;;33.03;19.23;;;;;;;7.05;100.00;96540.84;5053450;28;20040;-63
2022/04/25 04:57:46;;;;;;;35.63;20.20;;;;;;;6.97;99.33;96544.78;5046463;28;20044;-63
2022/04/25 05:00:14;;;;;;;37.63;23.33;;;;;;;7.00;99.23;96551.53;5057390;28;20411;-63
2022/04/25 05:02:42;;;;;;;36.05;20.90;;;;;;;7.00;100.00;96552.38;5058822;28;20051;-63
2022/04/25 05:05:10;;;;;;;35.33;21.00;;;;;;;7.00;99.17;96554.22;5058416;28;20078;-63
2022/04/25 05:07:37;;;;;;;34.75;20.88;;;;;;;7.02;98.91;96552.94;5061281;28;20055;-64
2022/04/25 05:10:06;;;;;;;33.83;20.33;;;;;;;7.05;98.60;96565.09;5056531;28;20040;-63
2022/04/25 05:12:50;;;;;;;30.85;19.63;;;;;;;7.11;98.56;96564.06;5056537;28;20120;-63
2022/04/25 05:15:18;;;;;;;35.75;20.65;;;;;;;7.21;99.52;96571.47;5055974;28;20052;-63
2022/04/25 05:17:48;;;;;;;37.80;23.05;;;;;;;7.27;98.10;96573.16;5057079;28;20048;-63
2022/04/25 05:20:16;;;;;;;36.70;23.03;;;;;;;7.27;97.32;96564.28;5059472;28;20101;-63
2022/04/25 05:22:45;;;;;;;35.47;22.92;;;;;;;7.33;97.47;96571.34;5077019;28;20044;-62
2022/04/25 05:25:17;;;;;;;37.53;23.50;;;;;;;7.50;98.52;96578.53;5064865;28;20040;-63
2022/04/25 05:27:46;;;;;;;35.83;23.90;;;;;;;7.42;97.11;96575.22;5062844;28;20522;-62
2022/04/25 05:30:14;;;;;;;32.95;22.00;;;;;;;7.47;97.35;96585.25;5053019;28;20049;-62
2022/04/25 05:32:42;;;;;;;37.35;24.88;;;;;;;7.44;97.27;96590.34;5048641;28;20045;-63
2022/04/25 05:35:09;;;;;;;35.10;22.83;;;;;;;7.50;96.65;96589.31;5055325;28;20070;-63
2022/04/25 05:37:36;;;;;;;32.85;22.30;;;;;;;7.56;96.36;96585.63;5061761;28;20064;-63
2022/04/25 05:40:04;;;;;;;32.25;20.98;;;;;;;7.67;96.17;96587.34;5062549;28;20033;-63
2022/04/25 05:42:31;;;;;;;31.45;21.05;;;;;;;7.81;95.03;96586.97;5050959;28;20041;-65
2022/04/25 05:44:59;;;;;;;30.40;19.60;;;;;;;7.97;94.21;96592.50;5057228;28;20820;-63
2022/04/25 05:47:26;;;;;;;27.60;19.02;;;;;;;8.06;93.74;96586.41;5055116;28;20041;-63
2022/04/25 05:52:38;;;;;;;25.73;17.90;;;;;;;8.16;92.63;96601.88;5061695;28;20563;-63
2022/04/25 05:55:05;;;;;;;37.70;24.40;;;;;;;8.28;91.69;96587.41;5063003;28;20059;-63
2022/04/25 05:57:32;;;;;;;25.65;17.92;;;;;;;8.42;92.43;96594.00;5052477;28;20048;-64
2022/04/25 05:59:58;;;;;;;47.10;28.55;;;;;;;8.46;91.32;96597.81;5052349;28;20209;-63
2022/04/25 06:02:25;;;;;;;29.13;18.65;;;;;;;8.55;91.10;96605.47;5050490;28;20094;-63
2022/04/25 06:04:52;;;;;;;26.48;17.77;;;;;;;8.69;89.97;96598.56;5056024;28;20077;-63
2022/04/25 06:07:18;;;;;;;24.00;17.20;;;;;;;8.78;89.41;96601.59;5063043;28;20044;-63
2022/04/25 06:09:45;;;;;;;66.88;39.05;;;;;;;8.70;91.10;96602.88;5048855;28;20459;-63
2022/04/25 06:12:11;;;;;;;24.25;16.48;;;;;;;8.54;90.61;96599.25;5063489;28;20780;-63
2022/04/25 06:14:38;;;;;;;44.67;27.08;;;;;;;8.41;89.38;96603.16;5049954;28;20048;-63
2022/04/25 06:17:04;;;;;;;41.25;26.92;;;;;;;8.55;89.35;96608.19;5046792;28;20041;-63
2022/04/25 06:19:32;;;;;;;31.77;20.40;;;;;;;8.77;89.78;96608.06;5047517;28;20107;-63
2022/04/25 06:21:59;;;;;;;69.35;42.35;;;;;;;8.88;88.67;96603.53;5046278;28;20047;-63
2022/04/25 06:24:26;;;;;;;30.25;21.13;;;;;;;8.91;87.97;96610.31;5047438;28;20714;-63
2022/04/25 06:26:53;;;;;;;36.92;23.35;;;;;;;8.78;87.62;96611.56;5047303;28;20079;-63
2022/04/25 06:29:19;;;;;;;22.08;14.40;;;;;;;9.01;87.00;96615.78;5046421;28;20037;-63
2022/04/25 06:31:46;;;;;;;24.67;16.70;;;;;;;9.15;85.88;96610.75;5050105;28;20044;-63
2022/04/25 06:34:12;;;;;;;24.30;14.65;;;;;;;9.18;86.34;96607.50;5060301;28;20052;-63
2022/04/25 06:36:39;;;;;;;27.42;15.82;;;;;;;9.30;85.57;96607.31;5061394;28;20044;-63
2022/04/25 06:39:05;;;;;;;19.00;13.60;;;;;;;9.31;85.56;96611.63;5057240;28;20475;-51
2022/04/25 06:41:33;;;;;;;19.65;13.95;;;;;;;9.30;84.42;96620.00;5060546;28;20048;-54
2022/04/25 06:44:00;;;;;;;22.10;16.05;;;;;;;9.36;85.56;96625.16;5063011;28;20135;-54
2022/04/25 06:46:28;;;;;;;21.63;14.48;;;;;;;9.26;85.29;96627.81;5063673;28;20075;-54
2022/04/25 06:51:40;;;;;;;20.73;13.48;;;;;;;9.55;81.74;96619.28;5050824;28;20044;-54
2022/04/25 06:54:07;;;;;;;21.70;14.02;;;;;;;9.29;83.02;96623.78;5056876;28;20044;-53
2022/04/25 06:56:35;;;;;;;20.52;13.32;;;;;;;9.40;83.70;96621.94;5054019;28;20049;-53
2022/04/25 06:59:01;;;;;;;18.25;12.65;;;;;;;9.46;84.08;96620.88;5051627;28;20044;-53
2022/04/25 07:01:28;;;;;;;20.70;14.15;;;;;;;9.50;83.99;96613.88;5050551;28;20037;-51
2022/04/25 07:03:55;;;;;;;18.88;13.77;;;;;;;9.68;82.55;96628.81;5063046;28;20044;-55
2022/04/25 07:06:21;;;;;;;16.88;12.05;;;;;;;10.10;79.74;96632.44;5062795;28;20528;-54
2022/04/25 07:08:47;;;;;;;24.50;15.75;;;;;;;10.36;82.28;96613.53;5049020;28;20152;-54
2022/04/25 07:11:14;;;;;;;39.30;23.85;;;;;;;10.11;78.51;96614.34;5044369;28;20041;-54
2022/04/25 07:13:45;;;;;;;31.60;21.67;;;;;;;9.90;79.35;96622.41;5064579;28;20051;-53
2022/04/25 07:16:12;;;;;;;19.95;13.65;;;;;;;9.90;80.88;96633.22;5049252;28;20453;-53
2022/04/25 07:18:39;;;;;;;26.80;19.50;;;;;;;9.52;82.09;96630.66;5048142;28;20047;-53
2022/04/25 07:29:25;;;;;;;19.88;12.82;;;;;;;9.60;84.13;96634.72;5047303;28;20056;-63
2022/04/25 07:31:51;;;;;;;17.50;12.63;;;;;;;9.33;82.73;96632.97;5049587;28;20470;-63
2022/04/25 07:34:19;;;;;;;20.30;14.50;;;;;;;9.33;83.87;96633.78;5049228;28;20040;-62
2022/04/25 07:36:53;;;;;;;28.30;19.95;;;;;;;9.16;84.96;96631.28;5056159;28;20047;-62
2022/04/25 07:39:21;;;;;;;20.05;15.18;;;;;;;9.39;84.23;96626.53;5044996;28;20068;-63
2022/04/25 07:41:50;;;;;;;17.95;13.02;;;;;;;9.53;81.40;96637.66;5040999;28;20052;-62
2022/04/25 07:44:16;;;;;;;19.23;12.68;;;;;;;9.57;81.75;96635.25;5057092;28;20053;-64
2022/04/25 07:46:45;;;;;;;19.33;13.45;;;;;;;9.74;80.64;96637.75;5054297;28;20071;-63
2022/04/25 07:49:12;;;;;;;16.08;12.23;;;;;;;9.74;80.15;96638.56;5050369;28;20044;-63
2022/04/25 07:51:40;;;;;;;17.92;12.60;;;;;;;9.78;81.43;96633.44;5055675;28;20045;-63
2022/04/25 07:54:08;;;;;;;21.83;12.57;;;;;;;9.81;80.80;96642.91;5057049;28;20079;-63
2022/04/25 07:56:36;;;;;;;18.95;12.20;;;;;;;10.07;80.04;96643.00;5042197;28;20053;-63
2022/04/25 07:59:05;;;;;;;20.10;12.82;;;;;;;10.22;79.23;96648.44;5059860;28;20044;-63
2022/04/25 08:01:33;;;;;;;24.00;15.32;;;;;;;10.32;79.80;96642.22;5045688;28;20402;-63
2022/04/25 08:04:01;;;;;;;23.48;15.98;;;;;;;10.47;79.20;96644.16;5061797;28;20049;-63
2022/04/25 08:06:27;;;;;;;17.63;12.65;;;;;;;10.69;76.61;96645.81;5048078;28;20627;-63
2022/04/25 08:08:55;;;;;;;17.98;13.23;;;;;;;10.63;77.96;96644.19;5049754;28;20048;-63
2022/04/25 08:11:22;;;;;;;16.98;12.65;;;;;;;10.49;78.32;96644.72;5044814;28;20126;-63
2022/04/25 08:19:37;;;;;;;17.65;13.18;;;;;;;10.46;78.78;96653.38;5019604;28;20068;-63
2022/04/25 08:22:09;;;;;;;18.55;13.27;;;;;;;10.61;79.38;96651.78;5037531;28;20065;-62
2022/04/25 08:24:36;;;;;;;17.58;12.55;;;;;;;10.83;77.33;96656.91;5059735;28;20048;-62
2022/04/25 08:27:05;;;;;;;18.73;12.43;;;;;;;10.99;76.51;96663.13;5051899;28;20051;-62
2022/04/25 08:29:33;;;;;;;15.48;11.70;;;;;;;10.96;76.37;96663.69;5059277;28;20046;-63
2022/04/25 08:32:00;;;;;;;19.95;13.52;;;;;;;10.82;76.96;96665.31;5056629;28;20040;-63
2022/04/25 08:34:27;;;;;;;17.60;12.32;;;;;;;10.88;76.51;96667.72;5045037;28;20499;-64
2022/04/25 08:36:53;;;;;;;15.60;11.43;;;;;;;11.08;76.02;96674.22;5050483;28;20067;-64
2022/04/25 08:39:20;;;;;;;18.38;12.55;;;;;;;11.18;76.35;96673.41;5048406;28;20124;-64
2022/04/25 08:41:50;;;;;;;16.23;11.75;;;;;;;11.33;74.27;96667.16;5056046;28;20049;-64
2022/04/25 08:44:17;;;;;;;18.02;12.57;;;;;;;11.09;75.38;96677.75;5047352;28;20048;-63
2022/04/25 08:46:48;;;;;;;17.45;11.88;;;;;;;11.26;75.50;96675.56;5050267;28;20749;-64
2022/04/25 08:49:17;;;;;;;16.98;11.57;;;;;;;11.40;73.99;96680.41;5071672;28;20051;-63
2022/04/25 08:51:44;;;;;;;16.30;11.93;;;;;;;11.31;74.38;96683.69;5058275;28;20032;-64
2022/04/25 08:54:10;;;;;;;14.40;10.82;;;;;;;11.75;71.62;96692.25;5049563;28;20044;-64
2022/04/25 08:56:40;;;;;;;19.80;12.57;;;;;;;11.50;73.56;96693.94;5048590;28;20055;-63
2022/04/25 08:59:08;;;;;;;17.27;12.60;;;;;;;11.46;73.75;96690.16;5041823;28;20044;-64
2022/04/25 09:01:36;;;;;;;19.45;12.18;;;;;;;11.63;73.09;96689.03;5044047;28;20052;-63
2022/04/25 09:04:04;;;;;;;16.45;11.65;;;;;;;11.78;72.51;96690.88;5048398;28;20066;-63
2022/04/25 09:06:31;;;;;;;17.75;12.98;;;;;;;11.85;72.08;96691.41;5057648;28;20507;-63
2022/04/25 09:08:58;;;;;;;20.48;13.15;;;;;;;12.00;71.77;96698.69;5050250;28;20068;-64
2022/04/25 09:14:11;;;;;;;17.55;11.77;;;;;;;12.57;69.18;96701.13;5064592;28;20148;-64
2022/04/25 09:16:39;;;;;;;17.02;12.13;;;;;;;12.83;68.32;96702.84;5042125;28;20049;-64
2022/04/25 09:19:07;;;;;;;14.05;11.07;;;;;;;13.18;66.30;96705.53;5053132;28;20310;-63
2022/04/25 09:21:44;;;;;;;16.27;12.10;;;;;;;12.72;67.95;96708.34;5058452;28;20416;-64
2022/04/25 09:24:27;;;;;;;15.73;11.30;;;;;;;12.85;68.43;96706.91;5053048;28;20049;-64
2022/04/25 09:27:19;;;;;;;16.17;12.48;;;;;;;12.35;70.29;96710.47;5059413;28;20526;-64
2022/04/25 09:29:48;;;;;;;16.05;11.50;;;;;;;12.85;68.22;96697.94;5057874;28;20401;-63
2022/04/25 09:32:17;;;;;;;15.40;11.65;;;;;;;12.78;66.17;96709.13;5058095;28;20045;-64
2022/04/25 09:34:59;;;;;;;15.65;12.02;;;;;;;12.61;66.65;96707.59;5065768;28;20052;-64
2022/04/25 09:37:44;;;;;;;16.40;12.32;;;;;;;11.89;70.83;96707.94;5062748;28;20048;-64
2022/04/25 09:40:12;;;;;;;17.70;11.93;;;;;;;11.65;70.19;96703.13;5044975;28;20532;-64
2022/04/25 09:42:38;;;;;;;16.55;11.63;;;;;;;11.42;69.90;96708.88;5058041;28;20055;-63
2022/04/25 09:45:06;;;;;;;15.48;12.23;;;;;;;11.81;70.02;96706.63;5061445;28;20050;-64
2022/04/25 09:47:36;;;;;;;16.30;12.32;;;;;;;12.05;69.13;96704.09;5056224;28;20151;-63
2022/04/25 09:50:12;;;;;;;15.98;12.30;;;;;;;11.95;68.75;96713.06;5055288;28;20041;-64
2022/04/25 09:53:02;;;;;;;15.75;12.35;;;;;;;12.54;68.13;96703.59;5044869;28;20075;-63
2022/04/25 09:55:31;;;;;;;16.00;11.98;;;;;;;12.96;65.90;96701.38;5054492;28;20041;-64
2022/04/25 09:57:58;;;;;;;15.77;12.05;;;;;;;13.25;64.53;96708.75;5056897;28;20048;-64
2022/04/25 10:00:30;;;;;;;15.20;11.10;;;;;;;13.98;61.74;96702.59;5055982;28;20063;-64
2022/04/25 10:02:58;;;;;;;13.80;10.38;;;;;;;14.40;59.16;96706.41;5053065;28;20554;-63
2022/04/25 10:05:36;;;;;;;13.68;10.43;;;;;;;14.49;59.99;96706.56;5044926;28;20527;-63
2022/04/25 10:08:04;;;;;;;11.95;9.55;;;;;;;14.23;59.99;96715.06;5058383;28;20036;-63
2022/04/25 10:10:31;;;;;;;11.95;9.82;;;;;;;14.00;60.12;96709.38;5052419;28;20040;-63
2022/04/25 10:12:59;;;;;;;12.20;9.65;;;;;;;13.48;62.05;96709.94;5061832;28;20056;-63
2022/04/25 10:15:29;;;;;;;12.68;10.32;;;;;;;13.15;63.28;96709.66;5044556;28;20045;-64
2022/04/25 10:17:56;;;;;;;14.80;10.48;;;;;;;13.08;61.06;96707.25;5060444;28;20052;-64
2022/04/25 10:20:23;;;;;;;14.02;9.57;;;;;;;13.27;62.50;96706.59;5073332;28;20055;-64
2022/04/25 10:22:50;;;;;;;13.05;9.43;;;;;;;12.92;62.54;96708.47;5065463;28;20052;-64
2022/04/25 10:25:16;;;;;;;11.48;9.07;;;;;;;12.41;62.51;96708.53;5044460;28;20090;-64
2022/04/25 10:27:43;;;;;;;12.05;10.05;;;;;;;11.93;64.59;96714.44;5047423;28;20057;-63
2022/04/25 10:30:17;;;;;;;13.20;9.70;;;;;;;12.21;64.69;96720.31;5054430;28;20131;-63
2022/04/25 10:32:44;;;;;;;12.93;9.65;;;;;;;12.37;64.64;96710.19;5060138;28;20903;-63
2022/04/25 10:35:15;;;;;;;12.60;9.80;;;;;;;12.39;65.83;96716.19;5044641;28;20427;-63
2022/04/25 10:37:44;;;;;;;15.07;9.88;;;;;;;12.29;64.39;96721.63;5061714;28;20162;-64
2022/04/25 10:44:10;;;;;;;13.88;9.80;;;;;;;12.36;64.53;96717.53;5053253;28;20678;-64
2022/04/25 10:46:01;;;;;;;14.15;9.95;;;;;;;12.19;68.48;96728.75;5058420;28;20436;-64
2022/04/25 10:48:29;;;;;;;16.25;12.45;;;;;;;12.10;69.92;96725.78;5057797;28;20122;-63
2022/04/25 10:51:10;;;;;;;11.45;9.25;;;;;;;12.36;68.52;96731.09;5051318;28;20106;-63
2022/04/25 10:54:05;;;;;;;13.63;10.50;;;;;;;12.46;69.83;96732.16;5051040;28;20053;-63
2022/04/25 10:56:32;;;;;;;14.15;10.88;;;;;;;12.36;71.16;96733.81;5064013;28;20044;-63
2022/04/25 10:59:20;;;;;;;15.57;10.88;;;;;;;11.57;75.12;96742.44;5045094;28;20053;-63
2022/04/25 11:01:47;;;;;;;14.80;11.13;;;;;;;11.78;74.51;96742.41;5053216;28;20093;-63
2022/04/25 11:04:15;;;;;;;16.67;13.52;;;;;;;11.77;76.75;96751.66;5064348;28;20071;-63
2022/04/25 11:06:42;;;;;;;13.10;10.07;;;;;;;11.96;73.95;96752.69;5082256;28;20101;-63
2022/04/25 11:09:09;;;;;;;12.30;8.45;;;;;;;11.94;71.22;96749.44;5049323;28;20095;-63
2022/04/25 11:11:56;;;;;;;15.70;9.55;;;;;;;11.75;72.94;96751.91;5042850;28;20048;-63
2022/04/25 11:14:23;;;;;;;22.90;17.92;;;;;;;11.48;77.63;96753.06;5050871;28;20044;-63
2022/04/25 11:17:11;;;;;;;15.93;10.93;;;;;;;11.63;77.43;96760.34;5042819;28;20103;-63
2022/04/25 11:19:51;;;;;;;15.65;10.40;;;;;;;11.35;77.92;96757.13;5058543;28;20645;-63
2022/04/25 11:22:53;;;;;;;15.30;9.63;;;;;;;10.98;80.81;96756.31;5062382;28;20037;-63
2022/04/25 11:25:22;;;;;;;13.88;9.10;;;;;;;11.00;79.21;96762.28;5054452;28;20079;-63
2022/04/25 11:28:05;;;;;;;12.25;9.88;;;;;;;10.93;80.01;96757.13;5055682;28;20091;-63
2022/04/25 11:30:32;;;;;;;14.73;11.13;;;;;;;10.65;83.86;96759.25;5070749;28;20051;-63
2022/04/25 11:33:07;;;;;;;17.70;12.55;;;;;;;11.01;84.61;96763.09;5058536;28;20052;-63
2022/04/25 11:35:34;;;;;;;15.45;11.15;;;;;;;11.38;83.56;96762.00;5050644;28;20056;-64
2022/04/25 11:38:01;;;;;;;12.65;8.93;;;;;;;11.53;80.73;96766.59;5050617;28;20048;-63
2022/04/25 11:40:28;;;;;;;12.52;9.93;;;;;;;11.07;81.91;96767.44;5048636;28;20497;-63
2022/04/25 11:42:56;;;;;;;11.73;9.00;;;;;;;11.18;81.77;96771.75;5049590;28;20773;-63
2022/04/25 11:45:22;;;;;;;12.88;9.00;;;;;;;11.17;79.70;96774.75;5076737;28;20048;-63
2022/04/25 11:47:49;;;;;;;47.15;28.33;;;;;;;11.29;79.69;96771.78;5056591;28;20108;-63
2022/04/25 11:50:19;;;;;;;12.45;9.63;;;;;;;11.55;77.06;96775.28;5067653;28;20491;-63
2022/04/25 11:52:47;;;;;;;14.10;9.43;;;;;;;11.11;79.40;96770.41;5055083;28;20404;-63
2022/04/25 11:55:16;;;;;;;23.70;16.60;;;;;;;11.42;79.65;96773.94;5058030;28;20052;-63
2022/04/25 11:57:45;;;;;;;15.40;11.00;;;;;;;11.63;76.34;96776.63;5056836;28;20190;-63
2022/04/25 12:00:21;;;;;;;13.10;9.00;;;;;;;12.04;78.17;96775.72;5060343;28;20047;-63
2022/04/25 12:02:47;;;;;;;15.68;12.20;;;;;;;12.07;78.98;96780.63;5051338;28;20041;-63